Annandale, New York
Current Conditions -  °F | °C
As of 9:53 PM on Friday 19 Dec 2014 (Local Time) from KPOU Reporting Station
Clear Clear  
Wind Chill: 28°   Ceiling: Unl
Heat Index: 28°   Visibility: 10mi
Dew Point: 19°   Wind: 0mph
Humidity: 69%   Direction: NA
Pressure: 30.16"   Gusts: NA
Location:  42.0124°N, 73.8998°W
Report Text: KPOU 200253Z AUTO 00000KT 10SM CLR M02/M07 A3016 RMK AO2 SLP211 T10221072 51005 TSNO
Loading
Personal Weather Stations






























Interactive Weather Map New forecast layout! Learn more

10-Day Weather Forecast

Advertisements
Track Severe Weather on mobile